Aérodrome :
LOGIN :

S'inscrire | Disclaimer

   EN    FR    IT 

 










Légende :    VFR   VFR Marginal   IFR   IFR Intensif   IFR Très Intensif
Visi : 
Plafond : 
>= 8 km
>= 3000ft
5 à 8 km
1000 à 3000 ft
1500m à 5 km
500 à 1000 ft
800 à 1500m
200 à 500 ft
< 800m
< 200 ft
Symboles :   Orages  Brouillard  Fortes neiges  Fortes précipitations  Vent > 20 kt
SIGMETs :   Divers  Orages  Givrage  Turbulence  Onde Orograph.  Cendres Volcan.






- Altitude de l'aérodrome : 147 ft
- Code IATA : DUS


EDDL - Düsseldorf Int.

DERNIER METAR :
  • 041120Z 20013KT 9999 FEW035 20/13 Q1015 TEMPO 22015G25KT

METARs EXPIRÉS :
  • 041050Z 21012KT 9999 -RA FEW040 19/14 Q1015 NOSIG
  • 041020Z 21018KT 9999 -RA NSC 20/12 Q1015 NOSIG
  • 040950Z 22018KT CAVOK 20/11 Q1015 NOSIG
  • 040920Z 22019KT 9999 OVC049 20/11 Q1015 NOSIG
  • 040850Z 21019KT CAVOK 20/11 Q1015 NOSIG

TAF TAF EDDL
Valide du 04 à 12h jusqu'au 05 à 18h UTC


041100Z 0412/0518 22015G25KT 9999 BKN025
BECMG 0417/0420 22013KT
TEMPO 0503/0508 BKN012
PROB30
TEMPO 0504/0506 BKN008
BECMG 0505/0508 23015G25KT
TEMPO 0508/0516 24020G30KT



MET'MAP, la Météo Aéronautique d'un coup d'oeil ! - Copyright ORBIFLY Décembre 2007 - Disclaimer

ORBIFLY MET'MAP TEAM :

Programmation & Développement : Alexandra Zaïnal
Sur une idée originale de : Baudouin d'Aumeries
Assistance à la programmation : Marc-Olivier Méhu
Soutien technique & logistique : Manuel Goepfert

Contact : metmap@orbifly.com




SOURCES & CREDITS :

   NOAA